Kelsey, California
Current Conditions -  °F | °C
As of 9:15 PM on Thursday 30 Oct 2014 (Local Time) from KPVF Reporting Station
Broken Clouds Broken Clouds  
Wind Chill: 61°   Ceiling: 4300
Heat Index: 61°   Visibility: 10mi
Dew Point: 37°   Wind: 6mph
Humidity: 42%   Direction: 110°ESE
Pressure: 29.95"   Gusts: NA
Location:  38.7308°N, 120.774°W
Report Text: KPVF 310415Z AUTO 11005KT 10SM SCT032 BKN043 16/03 A2995 RMK AO1
Loading
Personal Weather Stations






























Interactive Weather Map
Tropical Storm Tracking
New forecast layout! Learn more

10-Day Weather Forecast

Advertisements
Track Severe Weather on mobile